PWSweather.com
Personal Weather Stations
Station Observations
CARNOUSTIE
Pambride, CarnoustieGB DD7 6DY

PambrideCarnoustieGB DD7 6DY

Lat: 56.50889, Lon: -2.7051

Elevation: 105

Station Type: Oregon Scientific WMR200

www.carnoustieweather.co.uk

High Low Average
Temperature 72.3°F22.4°C 42.8°F6.0°C 57.0°F13.9°C
Dew Point 51.2°F10.7°C 34.2°F1.2°C 42.6°F5.9°C
Winds 11.5 mph 18.5 kmh Calm Calm 5.0 mph WSW8.0 kmh WSW
Wind Gusts 16.1 mph25.9 kmh -- 7.0 mph11.3 kmh
Humidity 81% 37% 60%
Pressure 29.82 in1009.8 mb 29.71 in1006.1 mb -
Precipitation 0.00 in0.0 mm - -
Hour Temp Dew Point Humidity Winds Wind Gusts Pressure Precip Precip Rate Daily Precip Total
12:00 AM 49.8°F9.9°C 37.3°F2.9°C 62% 3.5 mph WSW5.6 kmh WSW 3.5 mph5.6 kmh 29.74 in1007.1 mb - 0.00 in0.0 mm 0.00 in0.0 mm
12:10 AM 49.5°F9.7°C 37.0°F2.8°C 62% 3.5 mph W5.6 kmh W 4.6 mph7.4 kmh 29.74 in1007.1 mb - 0.00 in0.0 mm 0.00 in0.0 mm
12:20 AM 49.3°F9.6°C 36.8°F2.7°C 62% 3.5 mph W5.6 kmh W 4.6 mph7.4 kmh 29.74 in1007.1 mb - 0.00 in0.0 mm 0.00 in0.0 mm
12:30 AM 49.1°F9.5°C 37.0°F2.8°C 63% 3.5 mph W5.6 kmh W 3.5 mph5.6 kmh 29.74 in1007.1 mb - 0.00 in0.0 mm 0.00 in0.0 mm
12:40 AM 48.4°F9.1°C 36.4°F2.4°C 63% Calm Calm 1.2 mph1.9 kmh 29.74 in1007.1 mb - 0.00 in0.0 mm 0.00 in0.0 mm
12:50 AM 47.5°F8.6°C 35.5°F1.9°C 63% Calm Calm -- 29.74 in1007.1 mb - 0.00 in0.0 mm 0.00 in0.0 mm
01:00 AM 46.9°F8.3°C 35.4°F1.9°C 64% Calm Calm -- 29.77 in1008.1 mb - 0.00 in0.0 mm 0.00 in0.0 mm
01:10 AM 46.4°F8.0°C 34.9°F1.6°C 64% 1.2 mph WNW1.9 kmh WNW 2.3 mph3.7 kmh 29.77 in1008.1 mb - 0.00 in0.0 mm 0.00 in0.0 mm
01:20 AM 46.0°F7.8°C 34.9°F1.6°C 65% 2.3 mph WNW3.7 kmh WNW 2.3 mph3.7 kmh 29.77 in1008.1 mb - 0.00 in0.0 mm 0.00 in0.0 mm
01:30 AM 45.9°F7.7°C 35.1°F1.7°C 66% 3.5 mph WNW5.6 kmh WNW 3.5 mph5.6 kmh 29.77 in1008.1 mb - 0.00 in0.0 mm 0.00 in0.0 mm
01:40 AM 46.0°F7.8°C 35.3°F1.8°C 66% 1.2 mph WNW1.9 kmh WNW 1.2 mph1.9 kmh 29.77 in1008.1 mb - 0.00 in0.0 mm 0.00 in0.0 mm
01:50 AM 45.4°F7.4°C 34.7°F1.5°C 66% Calm Calm -- 29.77 in1008.1 mb - 0.00 in0.0 mm 0.00 in0.0 mm
02:00 AM 44.8°F7.1°C 34.5°F1.4°C 67% Calm Calm -- 29.80 in1009.1 mb - 0.00 in0.0 mm 0.00 in0.0 mm
02:10 AM 44.6°F7.0°C 34.3°F1.3°C 67% 2.3 mph NW3.7 kmh NW 3.5 mph5.6 kmh 29.80 in1009.1 mb - 0.00 in0.0 mm 0.00 in0.0 mm
02:20 AM 44.4°F6.9°C 34.5°F1.4°C 68% 2.3 mph SW3.7 kmh SW 2.3 mph3.7 kmh 29.77 in1008.1 mb - 0.00 in0.0 mm 0.00 in0.0 mm
02:30 AM 44.2°F6.8°C 34.3°F1.3°C 68% Calm Calm -- 29.80 in1009.1 mb - 0.00 in0.0 mm 0.00 in0.0 mm
02:40 AM 43.9°F6.6°C 34.4°F1.3°C 69% 1.2 mph SW1.9 kmh SW 1.2 mph1.9 kmh 29.80 in1009.1 mb - 0.00 in0.0 mm 0.00 in0.0 mm
02:50 AM 43.9°F6.6°C 34.4°F1.3°C 69% 1.2 mph SW1.9 kmh SW 2.3 mph3.7 kmh 29.80 in1009.1 mb - 0.00 in0.0 mm 0.00 in0.0 mm
03:00 AM 44.1°F6.7°C 34.9°F1.6°C 70% Calm Calm -- 29.80 in1009.1 mb - 0.00 in0.0 mm 0.00 in0.0 mm
03:10 AM 44.1°F6.7°C 34.9°F1.6°C 70% 2.3 mph WNW3.7 kmh WNW 2.3 mph3.7 kmh 29.80 in1009.1 mb - 0.00 in0.0 mm 0.00 in0.0 mm
03:20 AM 44.1°F6.7°C 35.0°F1.7°C 70% 2.3 mph W3.7 kmh W 2.3 mph3.7 kmh 29.80 in1009.1 mb - 0.00 in0.0 mm 0.00 in0.0 mm
03:30 AM 44.1°F6.7°C 35.3°F1.8°C 71% 2.3 mph W3.7 kmh W 2.3 mph3.7 kmh 29.80 in1009.1 mb - 0.00 in0.0 mm 0.00 in0.0 mm
03:40 AM 43.9°F6.6°C 35.1°F1.7°C 71% 1.2 mph W1.9 kmh W 2.3 mph3.7 kmh 29.80 in1009.1 mb - 0.00 in0.0 mm 0.00 in0.0 mm
03:50 AM 43.5°F6.4°C 34.7°F1.5°C 71% 2.3 mph WNW3.7 kmh WNW 2.3 mph3.7 kmh 29.80 in1009.1 mb - 0.00 in0.0 mm 0.00 in0.0 mm
04:00 AM 43.3°F6.3°C 34.6°F1.4°C 71% 1.2 mph WNW1.9 kmh WNW 2.3 mph3.7 kmh 29.80 in1009.1 mb - 0.00 in0.0 mm 0.00 in0.0 mm
04:10 AM 43.0°F6.1°C 34.2°F1.2°C 71% 1.2 mph W1.9 kmh W 2.3 mph3.7 kmh 29.80 in1009.1 mb - 0.00 in0.0 mm 0.00 in0.0 mm
04:20 AM 43.0°F6.1°C 34.6°F1.4°C 72% 2.3 mph W3.7 kmh W 2.3 mph3.7 kmh 29.80 in1009.1 mb - 0.00 in0.0 mm 0.00 in0.0 mm
04:30 AM 42.8°F6.0°C 34.4°F1.3°C 72% 1.2 mph W1.9 kmh W 2.3 mph3.7 kmh 29.77 in1008.1 mb - 0.00 in0.0 mm 0.00 in0.0 mm
04:40 AM 43.0°F6.1°C 34.6°F1.4°C 72% 2.3 mph WNW3.7 kmh WNW 2.3 mph3.7 kmh 29.77 in1008.1 mb - 0.00 in0.0 mm 0.00 in0.0 mm
04:50 AM 42.8°F6.0°C 34.7°F1.5°C 73% 2.3 mph WSW3.7 kmh WSW 2.3 mph3.7 kmh 29.80 in1009.1 mb - 0.00 in0.0 mm 0.00 in0.0 mm
05:00 AM 43.2°F6.2°C 35.1°F1.7°C 73% Calm Calm -- 29.80 in1009.1 mb - 0.00 in0.0 mm 0.00 in0.0 mm
05:10 AM 43.5°F6.4°C 35.8°F2.1°C 74% 2.3 mph SW3.7 kmh SW 2.3 mph3.7 kmh 29.80 in1009.1 mb - 0.00 in0.0 mm 0.00 in0.0 mm
05:20 AM 44.1°F6.7°C 36.4°F2.4°C 74% 2.3 mph SW3.7 kmh SW 2.3 mph3.7 kmh 29.80 in1009.1 mb - 0.00 in0.0 mm 0.00 in0.0 mm
05:30 AM 45.3°F7.4°C 37.8°F3.2°C 75% 1.2 mph SSW1.9 kmh SSW 2.3 mph3.7 kmh 29.77 in1008.1 mb - 0.00 in0.0 mm 0.00 in0.0 mm
05:40 AM 47.0°F8.3°C 39.4°F4.1°C 75% 3.5 mph WSW5.6 kmh WSW 4.6 mph7.4 kmh 29.77 in1008.1 mb - 0.00 in0.0 mm 0.00 in0.0 mm
05:50 AM 48.6°F9.2°C 41.4°F5.2°C 76% 2.3 mph WSW3.7 kmh WSW 4.6 mph7.4 kmh 29.80 in1009.1 mb - 0.00 in0.0 mm 0.00 in0.0 mm
06:00 AM 50.4°F10.2°C 43.8°F6.6°C 78% 2.3 mph WSW3.7 kmh WSW 3.5 mph5.6 kmh 29.80 in1009.1 mb - 0.00 in0.0 mm 0.00 in0.0 mm
06:10 AM 52.2°F11.2°C 46.5°F8.1°C 81% 4.6 mph SW7.4 kmh SW 6.9 mph11.1 kmh 29.80 in1009.1 mb - 0.00 in0.0 mm 0.00 in0.0 mm
06:20 AM 53.3°F11.8°C 47.6°F8.7°C 81% 4.6 mph WSW7.4 kmh WSW 5.8 mph9.3 kmh 29.80 in1009.1 mb - 0.00 in0.0 mm 0.00 in0.0 mm
06:30 AM 53.6°F12.0°C 46.9°F8.3°C 78% 4.6 mph WSW7.4 kmh WSW 4.6 mph7.4 kmh 29.80 in1009.1 mb - 0.00 in0.0 mm 0.00 in0.0 mm
06:40 AM 53.5°F11.9°C 45.8°F7.7°C 75% 3.5 mph S5.6 kmh S 3.5 mph5.6 kmh 29.80 in1009.1 mb - 0.00 in0.0 mm 0.00 in0.0 mm
06:50 AM 53.0°F11.7°C 45.0°F7.2°C 74% 1.2 mph SW1.9 kmh SW 2.3 mph3.7 kmh 29.80 in1009.1 mb - 0.00 in0.0 mm 0.00 in0.0 mm
07:00 AM 53.1°F11.7°C 44.6°F7.0°C 73% 3.5 mph SW5.6 kmh SW 5.8 mph9.3 kmh 29.80 in1009.1 mb - 0.00 in0.0 mm 0.00 in0.0 mm
07:10 AM 53.4°F11.9°C 45.3°F7.4°C 74% 3.5 mph SW5.6 kmh SW 5.8 mph9.3 kmh 29.80 in1009.1 mb - 0.00 in0.0 mm 0.00 in0.0 mm
07:20 AM 54.1°F12.3°C 45.7°F7.6°C 73% 2.3 mph WSW3.7 kmh WSW 3.5 mph5.6 kmh 29.80 in1009.1 mb - 0.00 in0.0 mm 0.00 in0.0 mm
07:30 AM 54.5°F12.5°C 45.3°F7.4°C 71% 4.6 mph WSW7.4 kmh WSW 4.6 mph7.4 kmh 29.82 in1009.8 mb - 0.00 in0.0 mm 0.00 in0.0 mm
07:40 AM 56.8°F13.8°C 46.4°F8.0°C 68% 4.6 mph SSW7.4 kmh SSW 5.8 mph9.3 kmh 29.82 in1009.8 mb - 0.00 in0.0 mm 0.00 in0.0 mm
07:50 AM 58.3°F14.6°C 46.2°F7.9°C 64% 5.8 mph WSW9.3 kmh WSW 9.2 mph14.8 kmh 29.82 in1009.8 mb - 0.00 in0.0 mm 0.00 in0.0 mm
08:00 AM 58.8°F14.9°C 44.1°F6.7°C 58% 4.6 mph WSW7.4 kmh WSW 6.9 mph11.1 kmh 29.80 in1009.1 mb - 0.00 in0.0 mm 0.00 in0.0 mm
08:10 AM 59.9°F15.5°C 43.6°F6.4°C 55% 3.5 mph SW5.6 kmh SW 4.6 mph7.4 kmh 29.80 in1009.1 mb - 0.00 in0.0 mm 0.00 in0.0 mm
08:20 AM 59.9°F15.5°C 42.2°F5.7°C 52% 6.9 mph SW11.1 kmh SW 6.9 mph11.1 kmh 29.80 in1009.1 mb - 0.00 in0.0 mm 0.00 in0.0 mm
08:30 AM 61.2°F16.2°C 41.8°F5.4°C 49% 6.9 mph SW11.1 kmh SW 9.2 mph14.8 kmh 29.82 in1009.8 mb - 0.00 in0.0 mm 0.00 in0.0 mm
08:40 AM 60.3°F15.7°C 41.1°F5.1°C 49% 5.8 mph WSW9.3 kmh WSW 8.1 mph13.0 kmh 29.82 in1009.8 mb - 0.00 in0.0 mm 0.00 in0.0 mm
08:50 AM 61.9°F16.6°C 43.0°F6.1°C 50% 4.6 mph SW7.4 kmh SW 8.1 mph13.0 kmh 29.80 in1009.1 mb - 0.00 in0.0 mm 0.00 in0.0 mm
09:00 AM 61.0°F16.1°C 42.3°F5.7°C 50% 6.9 mph W11.1 kmh W 6.9 mph11.1 kmh 29.80 in1009.1 mb - 0.00 in0.0 mm 0.00 in0.0 mm
09:10 AM 60.3°F15.7°C 50.1°F10.1°C 69% 8.1 mph W13.0 kmh W 10.4 mph16.7 kmh 29.80 in1009.1 mb - 0.00 in0.0 mm 0.00 in0.0 mm
09:20 AM 60.6°F15.9°C 50.4°F10.2°C 69% 8.1 mph WSW13.0 kmh WSW 13.8 mph22.2 kmh 29.80 in1009.1 mb - 0.00 in0.0 mm 0.00 in0.0 mm
09:30 AM 60.0°F15.6°C 49.0°F9.4°C 67% 9.2 mph WSW14.8 kmh WSW 10.4 mph16.7 kmh 29.77 in1008.1 mb - 0.00 in0.0 mm 0.00 in0.0 mm
09:40 AM 60.9°F16.1°C 50.2°F10.1°C 68% 8.1 mph WSW13.0 kmh WSW 9.2 mph14.8 kmh 29.77 in1008.1 mb - 0.00 in0.0 mm 0.00 in0.0 mm
09:50 AM 63.1°F17.3°C 51.2°F10.7°C 65% 6.9 mph SW11.1 kmh SW 10.4 mph16.7 kmh 29.80 in1009.1 mb - 0.00 in0.0 mm 0.00 in0.0 mm
10:00 AM 64.3°F17.9°C 50.1°F10.1°C 60% 8.1 mph SW13.0 kmh SW 16.1 mph25.9 kmh 29.80 in1009.1 mb - 0.00 in0.0 mm 0.00 in0.0 mm
10:10 AM 64.8°F18.2°C 49.6°F9.8°C 58% 9.2 mph SSW14.8 kmh SSW 13.8 mph22.2 kmh 29.80 in1009.1 mb - 0.00 in0.0 mm 0.00 in0.0 mm
10:20 AM 64.2°F17.9°C 49.1°F9.5°C 58% 8.1 mph SW13.0 kmh SW 8.1 mph13.0 kmh 29.80 in1009.1 mb - 0.00 in0.0 mm 0.00 in0.0 mm
10:30 AM 63.8°F17.7°C 49.2°F9.6°C 59% 6.9 mph W11.1 kmh W 9.2 mph14.8 kmh 29.80 in1009.1 mb - 0.00 in0.0 mm 0.00 in0.0 mm
10:40 AM 63.7°F17.6°C 50.0°F10.0°C 61% 8.1 mph W13.0 kmh W 13.8 mph22.2 kmh 29.80 in1009.1 mb - 0.00 in0.0 mm 0.00 in0.0 mm
10:50 AM 63.5°F17.5°C 48.5°F9.2°C 58% 9.2 mph W14.8 kmh W 9.2 mph14.8 kmh 29.80 in1009.1 mb - 0.00 in0.0 mm 0.00 in0.0 mm
11:00 AM 66.1°F18.9°C 49.4°F9.7°C 55% 5.8 mph SW9.3 kmh SW 8.1 mph13.0 kmh 29.80 in1009.1 mb - 0.00 in0.0 mm 0.00 in0.0 mm
11:10 AM 66.0°F18.9°C 48.9°F9.4°C 54% 9.2 mph WSW14.8 kmh WSW 13.8 mph22.2 kmh 29.80 in1009.1 mb - 0.00 in0.0 mm 0.00 in0.0 mm
11:20 AM 64.2°F17.9°C 48.6°F9.2°C 57% 5.8 mph SW9.3 kmh SW 10.4 mph16.7 kmh 29.80 in1009.1 mb - 0.00 in0.0 mm 0.00 in0.0 mm
11:30 AM 65.7°F18.7°C 49.1°F9.5°C 55% 9.2 mph WSW14.8 kmh WSW 13.8 mph22.2 kmh 29.77 in1008.1 mb - 0.00 in0.0 mm 0.00 in0.0 mm
11:40 AM 67.5°F19.7°C 49.7°F9.8°C 53% 8.1 mph SW13.0 kmh SW 10.4 mph16.7 kmh 29.77 in1008.1 mb - 0.00 in0.0 mm 0.00 in0.0 mm
11:50 AM 68.0°F20.0°C 49.2°F9.6°C 51% 10.4 mph W16.7 kmh W 12.7 mph20.4 kmh 29.77 in1008.1 mb - 0.00 in0.0 mm 0.00 in0.0 mm
12:00 PM 69.1°F20.6°C 49.7°F9.8°C 50% 8.1 mph WSW13.0 kmh WSW 11.5 mph18.5 kmh 29.77 in1008.1 mb - 0.00 in0.0 mm 0.00 in0.0 mm
12:10 PM 66.6°F19.2°C 47.9°F8.8°C 51% 6.9 mph WSW11.1 kmh WSW 8.1 mph13.0 kmh 29.77 in1008.1 mb - 0.00 in0.0 mm 0.00 in0.0 mm
12:20 PM 67.1°F19.5°C 49.9°F9.9°C 54% 6.9 mph W11.1 kmh W 9.2 mph14.8 kmh 29.77 in1008.1 mb - 0.00 in0.0 mm 0.00 in0.0 mm
12:30 PM 66.7°F19.3°C 48.5°F9.2°C 52% 8.1 mph WSW13.0 kmh WSW 8.1 mph13.0 kmh 29.77 in1008.1 mb - 0.00 in0.0 mm 0.00 in0.0 mm
12:40 PM 67.2°F19.6°C 47.9°F8.8°C 50% 9.2 mph W14.8 kmh W 13.8 mph22.2 kmh 29.77 in1008.1 mb - 0.00 in0.0 mm 0.00 in0.0 mm
12:50 PM 65.7°F18.7°C 47.6°F8.7°C 52% 10.4 mph WSW16.7 kmh WSW 13.8 mph22.2 kmh 29.77 in1008.1 mb - 0.00 in0.0 mm 0.00 in0.0 mm
01:00 PM 65.5°F18.6°C 47.9°F8.8°C 53% 5.8 mph SW9.3 kmh SW 9.2 mph14.8 kmh 29.77 in1008.1 mb - 0.00 in0.0 mm 0.00 in0.0 mm
01:10 PM 65.6°F18.7°C 48.0°F8.9°C 53% 8.1 mph W13.0 kmh W 11.5 mph18.5 kmh 29.77 in1008.1 mb - 0.00 in0.0 mm 0.00 in0.0 mm
01:20 PM 66.6°F19.2°C 47.9°F8.8°C 51% 6.9 mph WSW11.1 kmh WSW 9.2 mph14.8 kmh 29.77 in1008.1 mb - 0.00 in0.0 mm 0.00 in0.0 mm
01:30 PM 67.5°F19.7°C 48.2°F9.0°C 50% 5.8 mph SW9.3 kmh SW 8.1 mph13.0 kmh 29.77 in1008.1 mb - 0.00 in0.0 mm 0.00 in0.0 mm
01:40 PM 66.6°F19.2°C 46.3°F7.9°C 48% 5.8 mph WSW9.3 kmh WSW 9.2 mph14.8 kmh 29.77 in1008.1 mb - 0.00 in0.0 mm 0.00 in0.0 mm
01:50 PM 65.9°F18.8°C 45.6°F7.6°C 48% 6.9 mph WSW11.1 kmh WSW 6.9 mph11.1 kmh 29.74 in1007.1 mb - 0.00 in0.0 mm 0.00 in0.0 mm
02:00 PM 65.6°F18.7°C 47.5°F8.6°C 52% 6.9 mph WSW11.1 kmh WSW 10.4 mph16.7 kmh 29.74 in1007.1 mb - 0.00 in0.0 mm 0.00 in0.0 mm
02:10 PM 65.1°F18.4°C 45.5°F7.5°C 49% 8.1 mph W13.0 kmh W 9.2 mph14.8 kmh 29.74 in1007.1 mb - 0.00 in0.0 mm 0.00 in0.0 mm
02:20 PM 65.3°F18.5°C 45.6°F7.6°C 49% 3.5 mph SW5.6 kmh SW 6.9 mph11.1 kmh 29.74 in1007.1 mb - 0.00 in0.0 mm 0.00 in0.0 mm
02:30 PM 65.1°F18.4°C 45.0°F7.2°C 48% 4.6 mph SW7.4 kmh SW 6.9 mph11.1 kmh 29.77 in1008.1 mb - 0.00 in0.0 mm 0.00 in0.0 mm
02:40 PM 66.0°F18.9°C 45.2°F7.3°C 47% 5.8 mph W9.3 kmh W 8.1 mph13.0 kmh 29.77 in1008.1 mb - 0.00 in0.0 mm 0.00 in0.0 mm
02:50 PM 67.7°F19.8°C 49.4°F9.7°C 52% 3.5 mph S5.6 kmh S 5.8 mph9.3 kmh 29.77 in1008.1 mb - 0.00 in0.0 mm 0.00 in0.0 mm
03:00 PM 68.7°F20.4°C 49.3°F9.6°C 50% 5.8 mph WSW9.3 kmh WSW 6.9 mph11.1 kmh 29.77 in1008.1 mb - 0.00 in0.0 mm 0.00 in0.0 mm
03:10 PM 67.8°F19.9°C 48.4°F9.1°C 50% 5.8 mph SSW9.3 kmh SSW 9.2 mph14.8 kmh 29.77 in1008.1 mb - 0.00 in0.0 mm 0.00 in0.0 mm
03:20 PM 67.3°F19.6°C 46.4°F8.0°C 47% 6.9 mph WSW11.1 kmh WSW 10.4 mph16.7 kmh 29.77 in1008.1 mb - 0.00 in0.0 mm 0.00 in0.0 mm
03:30 PM 68.0°F20.0°C 41.4°F5.2°C 38% 6.9 mph W11.1 kmh W 8.1 mph13.0 kmh 29.77 in1008.1 mb - 0.00 in0.0 mm 0.00 in0.0 mm
03:40 PM 68.8°F20.4°C 41.5°F5.3°C 37% 6.9 mph SW11.1 kmh SW 13.8 mph22.2 kmh 29.77 in1008.1 mb - 0.00 in0.0 mm 0.00 in0.0 mm
03:50 PM 67.3°F19.6°C 42.1°F5.6°C 40% 4.6 mph WSW7.4 kmh WSW 5.8 mph9.3 kmh 29.74 in1007.1 mb - 0.00 in0.0 mm 0.00 in0.0 mm
04:00 PM 68.5°F20.3°C 43.9°F6.6°C 41% 5.8 mph SW9.3 kmh SW 6.9 mph11.1 kmh 29.74 in1007.1 mb - 0.00 in0.0 mm 0.00 in0.0 mm
04:10 PM 68.4°F20.2°C 42.4°F5.8°C 39% 9.2 mph WSW14.8 kmh WSW 11.5 mph18.5 kmh 29.74 in1007.1 mb - 0.00 in0.0 mm 0.00 in0.0 mm
04:20 PM 70.7°F21.5°C 44.5°F6.9°C 39% 10.4 mph WSW16.7 kmh WSW 12.7 mph20.4 kmh 29.74 in1007.1 mb - 0.00 in0.0 mm 0.00 in0.0 mm
04:30 PM 72.3°F22.4°C 45.3°F7.4°C 38% 11.5 mph WSW18.5 kmh WSW 13.8 mph22.2 kmh 29.74 in1007.1 mb - 0.00 in0.0 mm 0.00 in0.0 mm
04:40 PM 72.0°F22.2°C 44.3°F6.8°C 37% 8.1 mph SW13.0 kmh SW 10.4 mph16.7 kmh 29.74 in1007.1 mb - 0.00 in0.0 mm 0.00 in0.0 mm
04:50 PM 70.7°F21.5°C 43.8°F6.6°C 38% 8.1 mph W13.0 kmh W 9.2 mph14.8 kmh 29.71 in1006.1 mb - 0.00 in0.0 mm 0.00 in0.0 mm
05:00 PM 70.1°F21.2°C 44.6°F7.0°C 40% 5.8 mph WSW9.3 kmh WSW 9.2 mph14.8 kmh 29.71 in1006.1 mb - 0.00 in0.0 mm 0.00 in0.0 mm
05:10 PM 70.0°F21.1°C 43.2°F6.2°C 38% 6.9 mph WSW11.1 kmh WSW 9.2 mph14.8 kmh 29.71 in1006.1 mb - 0.00 in0.0 mm 0.00 in0.0 mm
05:20 PM 66.4°F19.1°C 40.7°F4.8°C 39% 6.9 mph WSW11.1 kmh WSW 9.2 mph14.8 kmh 29.74 in1007.1 mb - 0.00 in0.0 mm 0.00 in0.0 mm
05:30 PM 65.6°F18.7°C 43.1°F6.2°C 44% 6.9 mph WSW11.1 kmh WSW 10.4 mph16.7 kmh 29.74 in1007.1 mb - 0.00 in0.0 mm 0.00 in0.0 mm
05:40 PM 67.4°F19.7°C 44.1°F6.7°C 43% 10.4 mph WSW16.7 kmh WSW 13.8 mph22.2 kmh 29.74 in1007.1 mb - 0.00 in0.0 mm 0.00 in0.0 mm
05:50 PM 65.1°F18.4°C 42.1°F5.6°C 43% 9.2 mph WNW14.8 kmh WNW 11.5 mph18.5 kmh 29.74 in1007.1 mb - 0.00 in0.0 mm 0.00 in0.0 mm
06:00 PM 62.7°F17.1°C 41.6°F5.3°C 46% 11.5 mph WNW18.5 kmh WNW 15.0 mph24.1 kmh 29.74 in1007.1 mb - 0.00 in0.0 mm 0.00 in0.0 mm
06:10 PM 61.5°F16.4°C 42.7°F5.9°C 50% 9.2 mph W14.8 kmh W 11.5 mph18.5 kmh 29.74 in1007.1 mb - 0.00 in0.0 mm 0.00 in0.0 mm
06:20 PM 60.4°F15.8°C 45.5°F7.5°C 58% 8.1 mph WNW13.0 kmh WNW 9.2 mph14.8 kmh 29.74 in1007.1 mb - 0.00 in0.0 mm 0.00 in0.0 mm
06:30 PM 59.9°F15.5°C 43.2°F6.2°C 54% 6.9 mph W11.1 kmh W 8.1 mph13.0 kmh 29.74 in1007.1 mb - 0.00 in0.0 mm 0.00 in0.0 mm
06:40 PM 61.7°F16.5°C 49.4°F9.7°C 64% 8.1 mph W13.0 kmh W 8.1 mph13.0 kmh 29.74 in1007.1 mb - 0.00 in0.0 mm 0.00 in0.0 mm
06:50 PM 63.4°F17.4°C 49.7°F9.8°C 61% 5.8 mph W9.3 kmh W 6.9 mph11.1 kmh 29.74 in1007.1 mb - 0.00 in0.0 mm 0.00 in0.0 mm
07:00 PM 64.2°F17.9°C 50.5°F10.3°C 61% 5.8 mph WSW9.3 kmh WSW 6.9 mph11.1 kmh 29.74 in1007.1 mb - 0.00 in0.0 mm 0.00 in0.0 mm
07:10 PM 64.0°F17.8°C 47.0°F8.3°C 54% 5.8 mph W9.3 kmh W 6.9 mph11.1 kmh 29.74 in1007.1 mb - 0.00 in0.0 mm 0.00 in0.0 mm
07:20 PM 62.4°F16.9°C 46.0°F7.8°C 55% 5.8 mph W9.3 kmh W 6.9 mph11.1 kmh 29.74 in1007.1 mb - 0.00 in0.0 mm 0.00 in0.0 mm
07:30 PM 60.6°F15.9°C 50.4°F10.2°C 69% 4.6 mph W7.4 kmh W 5.8 mph9.3 kmh 29.77 in1008.1 mb - 0.00 in0.0 mm 0.00 in0.0 mm
07:40 PM 59.2°F15.1°C 49.8°F9.9°C 71% 4.6 mph W7.4 kmh W 5.8 mph9.3 kmh 29.77 in1008.1 mb - 0.00 in0.0 mm 0.00 in0.0 mm
07:50 PM 58.4°F14.7°C 47.1°F8.4°C 66% 3.5 mph WSW5.6 kmh WSW 4.6 mph7.4 kmh 29.74 in1007.1 mb - 0.00 in0.0 mm 0.00 in0.0 mm
08:00 PM 57.6°F14.2°C 45.5°F7.5°C 64% 4.6 mph W7.4 kmh W 4.6 mph7.4 kmh 29.74 in1007.1 mb - 0.00 in0.0 mm 0.00 in0.0 mm
08:10 PM 56.8°F13.8°C 49.0°F9.4°C 75% 4.6 mph W7.4 kmh W 5.8 mph9.3 kmh 29.74 in1007.1 mb - 0.00 in0.0 mm 0.00 in0.0 mm
08:20 PM 56.1°F13.4°C 47.6°F8.7°C 73% 4.6 mph W7.4 kmh W 5.8 mph9.3 kmh 29.77 in1008.1 mb - 0.00 in0.0 mm 0.00 in0.0 mm
08:30 PM 55.4°F13.0°C 43.4°F6.3°C 64% 3.5 mph WSW5.6 kmh WSW 3.5 mph5.6 kmh 29.77 in1008.1 mb - 0.00 in0.0 mm 0.00 in0.0 mm
08:40 PM 54.7°F12.6°C 39.7°F4.3°C 57% 2.3 mph W3.7 kmh W 2.3 mph3.7 kmh 29.77 in1008.1 mb - 0.00 in0.0 mm 0.00 in0.0 mm
08:50 PM 53.8°F12.1°C 39.8°F4.3°C 59% 2.3 mph WNW3.7 kmh WNW 3.5 mph5.6 kmh 29.77 in1008.1 mb - 0.00 in0.0 mm 0.00 in0.0 mm
09:00 PM 53.2°F11.8°C 40.5°F4.7°C 62% 3.5 mph WNW5.6 kmh WNW 3.5 mph5.6 kmh 29.80 in1009.1 mb - 0.00 in0.0 mm 0.00 in0.0 mm
09:10 PM 53.1°F11.7°C 38.2°F3.4°C 57% 3.5 mph W5.6 kmh W 4.6 mph7.4 kmh 29.80 in1009.1 mb - 0.00 in0.0 mm 0.00 in0.0 mm
09:20 PM 53.1°F11.7°C 40.0°F4.4°C 61% 3.5 mph WNW5.6 kmh WNW 4.6 mph7.4 kmh 29.80 in1009.1 mb - 0.00 in0.0 mm 0.00 in0.0 mm
09:30 PM 52.9°F11.6°C 37.6°F3.1°C 56% 4.6 mph W7.4 kmh W 4.6 mph7.4 kmh 29.80 in1009.1 mb - 0.00 in0.0 mm 0.00 in0.0 mm
09:40 PM 52.8°F11.6°C 38.4°F3.6°C 58% 4.6 mph W7.4 kmh W 4.6 mph7.4 kmh 29.80 in1009.1 mb - 0.00 in0.0 mm 0.00 in0.0 mm
09:50 PM 52.0°F11.1°C 37.7°F3.2°C 58% 3.5 mph W5.6 kmh W 4.6 mph7.4 kmh 29.80 in1009.1 mb - 0.00 in0.0 mm 0.00 in0.0 mm
10:00 PM 51.4°F10.8°C 37.6°F3.1°C 59% 4.6 mph W7.4 kmh W 4.6 mph7.4 kmh 29.80 in1009.1 mb - 0.00 in0.0 mm 0.00 in0.0 mm
10:10 PM 50.9°F10.5°C 37.9°F3.3°C 61% 3.5 mph W5.6 kmh W 3.5 mph5.6 kmh 29.80 in1009.1 mb - 0.00 in0.0 mm 0.00 in0.0 mm
10:20 PM 50.7°F10.4°C 38.6°F3.7°C 63% 3.5 mph W5.6 kmh W 4.6 mph7.4 kmh 29.80 in1009.1 mb - 0.00 in0.0 mm 0.00 in0.0 mm
10:30 PM 50.3°F10.2°C 37.7°F3.2°C 62% 3.5 mph W5.6 kmh W 3.5 mph5.6 kmh 29.80 in1009.1 mb - 0.00 in0.0 mm 0.00 in0.0 mm
10:40 PM 49.8°F9.9°C 37.7°F3.2°C 63% 4.6 mph W7.4 kmh W 4.6 mph7.4 kmh 29.80 in1009.1 mb - 0.00 in0.0 mm 0.00 in0.0 mm
10:50 PM 49.6°F9.8°C 38.0°F3.3°C 64% 3.5 mph W5.6 kmh W 4.6 mph7.4 kmh 29.80 in1009.1 mb - 0.00 in0.0 mm 0.00 in0.0 mm
11:00 PM 49.3°F9.6°C 38.0°F3.3°C 65% 4.6 mph W7.4 kmh W 4.6 mph7.4 kmh 29.80 in1009.1 mb - 0.00 in0.0 mm 0.00 in0.0 mm
11:10 PM 49.3°F9.6°C 38.0°F3.3°C 65% 4.6 mph W7.4 kmh W 4.6 mph7.4 kmh 29.80 in1009.1 mb - 0.00 in0.0 mm 0.00 in0.0 mm
11:20 PM 49.5°F9.7°C 38.6°F3.7°C 66% 4.6 mph WSW7.4 kmh WSW 5.8 mph9.3 kmh 29.80 in1009.1 mb - 0.00 in0.0 mm 0.00 in0.0 mm
11:30 PM 49.8°F9.9°C 39.3°F4.1°C 67% 5.8 mph W9.3 kmh W 8.1 mph13.0 kmh 29.80 in1009.1 mb - 0.00 in0.0 mm 0.00 in0.0 mm
11:40 PM 50.2°F10.1°C 39.6°F4.2°C 67% 4.6 mph W7.4 kmh W 5.8 mph9.3 kmh 29.80 in1009.1 mb - 0.00 in0.0 mm 0.00 in0.0 mm
11:50 PM 49.5°F9.7°C 39.0°F3.9°C 67% 4.6 mph W7.4 kmh W 5.8 mph9.3 kmh 29.80 in1009.1 mb - 0.00 in0.0 mm 0.00 in0.0 mm